Time;durP1;ratioP1;P1;durP2;ratioP2;P2;SDS_P1;SDS_P2;PMS_P1;PMS_P2;Temp;Humidity;BMP_temperature;BMP_pressure;BME280_temperature;BME280_humidity;BME280_pressure;Samples;Min_cycle;Max_cycle;Signal;HPM_P1;HPM_P2
2022/10/01 00:00:59;;;;;;;;;;;16.10;99.90;;;;;;5097683;28;19947;-81
2022/10/01 00:03:28;;;;;;;;;;;16.20;99.90;;;;;;5097182;28;19927;-81
2022/10/01 00:06:12;;;;;;;;;;;16.20;99.90;;;;;;5102579;28;20301;-81
2022/10/01 00:08:47;;;;;;;;;;;16.20;99.90;;;;;;5084941;28;19923;-81
2022/10/01 00:11:35;;;;;;;;;;;16.20;99.90;;;;;;5092514;28;19934;-82
2022/10/01 00:14:31;;;;;;;;;;;16.30;99.90;;;;;;5092062;28;20012;-81
2022/10/01 00:17:00;;;;;;;;;;;16.30;99.90;;;;;;5093718;28;19966;-81
2022/10/01 00:22:33;;;;;;;;;;;;;;;;;;;;;
2022/10/01 00:25:42;;;;;;;;;;;;;;;;;;;;;
2022/10/01 00:34:07;;;;;;;;;;;16.20;99.90;;;;;;5088963;28;19901;-81
2022/10/01 00:36:36;;;;;;;;;;;16.30;99.90;;;;;;5097777;28;19912;-82
2022/10/01 00:39:23;;;;;;;;;;;16.30;99.90;;;;;;5099499;28;20393;-82
2022/10/01 00:41:57;;;;;;;;;;;16.30;99.90;;;;;;5098531;28;19937;-80
2022/10/01 00:45:01;;;;;;;;;;;16.30;99.90;;;;;;5101520;28;19977;-82
2022/10/01 00:47:59;;;;;;;;;;;16.20;99.90;;;;;;5095544;28;19923;-82
2022/10/01 00:54:20;;;;;;;;;;;16.10;99.90;;;;;;5057585;28;19919;-84
2022/10/01 00:56:46;;;;;;;;;;;16.10;99.90;;;;;;4983024;28;19924;-80
2022/10/01 00:59:15;;;;;;;;;;;16.10;99.90;;;;;;5091597;28;20474;-80
2022/10/01 01:04:47;;;;;;;;;;;16.20;99.90;;;;;;5094745;28;19991;-80
2022/10/01 01:07:19;;;;;;;;;;;16.30;99.90;;;;;;5095955;28;19912;-81
2022/10/01 01:09:54;;;;;;;;;;;16.30;99.90;;;;;;5096379;28;21690;-80
2022/10/01 01:12:47;;;;;;;;;;;16.30;99.90;;;;;;5095060;28;19924;-81
2022/10/01 01:21:57;;;;;;;;;;;;;;;;;;;;;
2022/10/01 01:24:46;;;;;;;;;;;16.50;99.90;;;;;;5087807;28;19963;-80
2022/10/01 01:30:48;;;;;;;;;;;16.50;99.90;;;;;;5114120;28;19915;-80
2022/10/01 01:36:49;;;;;;;;;;;16.50;99.90;;;;;;5102242;28;19935;-80
2022/10/01 01:39:19;;;;;;;;;;;16.50;99.90;;;;;;5081098;28;19981;-80
2022/10/01 01:44:59;;;;;;;;;;;16.40;99.90;;;;;;5088171;28;19900;-80
2022/10/01 01:50:54;;;;;;;;;;;16.40;99.90;;;;;;5097716;28;20002;-80
2022/10/01 01:53:19;;;;;;;;;;;16.40;99.90;;;;;;5098763;28;19919;-80
2022/10/01 01:55:59;;;;;;;;;;;16.40;99.90;;;;;;5097250;28;19941;-81
2022/10/01 01:58:55;;;;;;;;;;;16.40;99.90;;;;;;5105502;28;19908;-80
2022/10/01 02:01:48;;;;;;;;;;;16.40;99.90;;;;;;5105290;28;19939;-80
2022/10/01 02:04:59;;;;;;;;;;;16.50;99.90;;;;;;5090110;28;19944;-79
2022/10/01 02:07:56;;;;;;;;;;;16.50;99.90;;;;;;5091505;28;19912;-80
2022/10/01 02:13:52;;;;;;;;;;;16.60;99.90;;;;;;5019246;28;20022;-80
2022/10/01 02:19:33;;;;;;;;;;;16.50;99.90;;;;;;5063470;28;20408;-80
2022/10/01 02:22:27;;;;;;;;;;;16.60;99.90;;;;;;5106247;28;19916;-81
2022/10/01 02:25:18;;;;;;;;;;;16.60;99.90;;;;;;5082587;28;19913;-81
2022/10/01 02:31:27;;;;;;;;;;;16.60;99.90;;;;;;5086585;28;20007;-81
2022/10/01 02:33:54;;;;;;;;;;;16.70;99.90;;;;;;5087796;28;19934;-81
2022/10/01 02:36:23;;;;;;;;;;;16.70;99.90;;;;;;5097433;28;19926;-81
2022/10/01 02:38:57;;;;;;;;;;;16.70;99.90;;;;;;5082003;28;19996;-81
2022/10/01 02:41:29;;;;;;;;;;;16.50;99.90;;;;;;5098682;28;20715;-81
2022/10/01 02:44:19;;;;;;;;;;;16.50;99.90;;;;;;5079012;28;19934;-81
2022/10/01 02:47:18;;;;;;;;;;;;;;;;;;;;;
2022/10/01 02:49:48;;;;;;;;;;;16.50;99.90;;;;;;5097321;28;19983;-81
2022/10/01 02:52:40;;;;;;;;;;;16.50;99.90;;;;;;5095384;28;20238;-81
2022/10/01 03:00:49;;;;;;;;;;;16.50;99.90;;;;;;5096236;28;19919;-81
2022/10/01 03:03:28;;;;;;;;;;;;;;;;;;;;;
2022/10/01 03:06:14;;;;;;;;;;;16.60;99.90;;;;;;5095844;28;20031;-81
2022/10/01 03:08:49;;;;;;;;;;;16.70;99.90;;;;;;5066983;28;19986;-81
2022/10/01 03:11:19;;;;;;;;;;;16.70;99.90;;;;;;5095806;28;19928;-82
2022/10/01 03:13:58;;;;;;;;;;;;;;;;;;;;;
2022/10/01 03:16:44;;;;;;;;;;;16.60;99.90;;;;;;5099238;28;19959;-81
2022/10/01 03:25:38;;;;;;;;;;;;;;;;;;;;;
2022/10/01 03:28:46;;;;;;;;;;;16.90;99.90;;;;;;5021622;28;19989;-84
2022/10/01 03:31:14;;;;;;;;;;;17.00;99.90;;;;;;5079688;28;19931;-81
2022/10/01 03:34:02;;;;;;;;;;;;;;;;;;;;;
2022/10/01 03:36:28;;;;;;;;;;;17.00;99.90;;;;;;5089206;28;19975;-82
2022/10/01 03:39:01;;;;;;;;;;;17.00;99.90;;;;;;5080098;28;19912;-82
2022/10/01 03:41:48;;;;;;;;;;;17.10;99.90;;;;;;5071011;28;19995;-83
2022/10/01 03:44:22;;;;;;;;;;;17.20;99.90;;;;;;5091025;28;19920;-85
2022/10/01 03:46:48;;;;;;;;;;;17.20;99.90;;;;;;5093782;28;19928;-81
2022/10/01 03:49:22;;;;;;;;;;;17.20;99.90;;;;;;5093681;28;19912;-84
2022/10/01 03:52:09;;;;;;;;;;;17.30;99.90;;;;;;5092365;28;19928;-82
2022/10/01 03:55:24;;;;;;;;;;;17.20;99.90;;;;;;5094100;28;19972;-81
2022/10/01 03:58:19;;;;;;;;;;;17.30;99.90;;;;;;5083223;28;19918;-81
2022/10/01 04:00:56;;;;;;;;;;;17.30;99.90;;;;;;5088071;28;20086;-81
2022/10/01 04:03:53;;;;;;;;;;;17.20;99.90;;;;;;5092590;28;19916;-81
2022/10/01 04:06:41;;;;;;;;;;;17.20;99.90;;;;;;5091241;28;19928;-80
2022/10/01 04:09:37;;;;;;;;;;;17.30;99.90;;;;;;5090769;28;19948;-81
2022/10/01 04:12:29;;;;;;;;;;;17.20;99.90;;;;;;5087623;28;19923;-81
2022/10/01 04:15:23;;;;;;;;;;;17.20;99.90;;;;;;5030503;28;20008;-81
2022/10/01 04:18:18;;;;;;;;;;;;;;;;;;;;;
2022/10/01 04:21:16;;;;;;;;;;;17.30;99.90;;;;;;5037808;28;20000;-81
2022/10/01 04:24:04;;;;;;;;;;;;;;;;;;;;;
2022/10/01 04:27:02;;;;;;;;;;;;;;;;;;;;;
2022/10/01 04:29:39;;;;;;;;;;;17.10;99.90;;;;;;5036084;28;19973;-81
2022/10/01 04:35:35;;;;;;;;;;;17.20;99.90;;;;;;5002975;28;19913;-81
2022/10/01 04:38:45;;;;;;;;;;;17.30;99.90;;;;;;5019393;28;19913;-81
2022/10/01 04:44:37;;;;;;;;;;;17.30;99.90;;;;;;5035209;28;20085;-81
2022/10/01 04:47:47;;;;;;;;;;;;;;;;;;;;;
2022/10/01 04:53:54;;;;;;;;;;;;;;;;;;;;;
2022/10/01 04:56:29;;;;;;;;;;;17.40;99.90;;;;;;5092402;28;19976;-81
2022/10/01 05:02:37;;;;;;;;;;;17.40;99.90;;;;;;5073622;28;19924;-80
2022/10/01 05:05:28;;;;;;;;;;;17.40;99.90;;;;;;5091585;28;19987;-80
2022/10/01 05:08:09;;;;;;;;;;;17.30;99.90;;;;;;5097794;28;19904;-80
2022/10/01 05:14:51;;;;;;;;;;;;;;;;;;;;;
2022/10/01 05:17:18;;;;;;;;;;;17.20;99.90;;;;;;5026041;28;19921;-81
2022/10/01 05:22:55;;;;;;;;;;;17.20;99.90;;;;;;4968052;29;19949;-81
2022/10/01 05:25:21;;;;;;;;;;;17.30;99.90;;;;;;5074973;28;19920;-82
2022/10/01 05:27:46;;;;;;;;;;;17.20;99.90;;;;;;5097784;28;19916;-81
2022/10/01 05:30:18;;;;;;;;;;;17.20;99.90;;;;;;5095380;28;19913;-81
2022/10/01 05:32:54;;;;;;;;;;;17.20;99.90;;;;;;5095406;28;19923;-81
2022/10/01 05:35:20;;;;;;;;;;;17.30;99.90;;;;;;5093668;28;20054;-82
2022/10/01 05:38:02;;;;;;;;;;;17.30;99.90;;;;;;5097628;28;20024;-81
2022/10/01 05:40:32;;;;;;;;;;;17.30;99.90;;;;;;5082568;28;19913;-80
2022/10/01 05:43:17;;;;;;;;;;;17.30;99.90;;;;;;5077663;28;19911;-80
2022/10/01 05:45:49;;;;;;;;;;;17.40;99.90;;;;;;5098264;28;19912;-81
2022/10/01 05:48:15;;;;;;;;;;;17.50;99.90;;;;;;5097980;28;20000;-81
2022/10/01 05:50:42;;;;;;;;;;;17.60;99.90;;;;;;5097857;28;19960;-82
2022/10/01 05:53:12;;;;;;;;;;;17.80;99.90;;;;;;5094410;28;19927;-81
2022/10/01 05:55:38;;;;;;;;;;;17.90;99.90;;;;;;5096019;28;19975;-82
2022/10/01 05:58:05;;;;;;;;;;;17.90;99.90;;;;;;5096697;28;21030;-82
2022/10/01 06:00:32;;;;;;;;;;;17.90;99.90;;;;;;5099883;28;19912;-82
2022/10/01 06:02:58;;;;;;;;;;;17.90;99.90;;;;;;5096362;28;19938;-81
2022/10/01 06:05:27;;;;;;;;;;;17.90;99.90;;;;;;5096268;28;19917;-82
2022/10/01 06:07:52;;;;;;;;;;;18.00;99.90;;;;;;5099679;28;19912;-82
2022/10/01 06:10:19;;;;;;;;;;;18.10;99.90;;;;;;5099258;28;19934;-81
2022/10/01 06:12:44;;;;;;;;;;;18.10;99.90;;;;;;5090966;28;19900;-81
2022/10/01 06:15:11;;;;;;;;;;;18.20;99.90;;;;;;5097179;28;19912;-81
2022/10/01 06:17:42;;;;;;;;;;;18.30;99.90;;;;;;5083661;28;19919;-81
2022/10/01 06:20:11;;;;;;;;;;;18.40;99.90;;;;;;5103410;28;19905;-80
2022/10/01 06:22:37;;;;;;;;;;;18.50;99.90;;;;;;5100105;28;19924;-80
2022/10/01 06:25:06;;;;;;;;;;;18.50;99.90;;;;;;5088978;28;19942;-81
2022/10/01 06:27:32;;;;;;;;;;;18.50;99.90;;;;;;5109655;28;19904;-80
2022/10/01 06:29:58;;;;;;;;;;;18.50;99.90;;;;;;5112660;28;19917;-83
2022/10/01 06:32:26;;;;;;;;;;;18.50;99.90;;;;;;5108575;28;19935;-81
2022/10/01 06:34:52;;;;;;;;;;;18.50;99.90;;;;;;5090849;28;20370;-82
2022/10/01 06:37:18;;;;;;;;;;;18.50;99.90;;;;;;5097022;28;19920;-81
2022/10/01 06:39:43;;;;;;;;;;;18.40;99.90;;;;;;5080914;28;19912;-81
2022/10/01 06:42:12;;;;;;;;;;;18.40;99.90;;;;;;5095432;28;19927;-81
2022/10/01 06:44:40;;;;;;;;;;;18.30;99.90;;;;;;5097039;28;20354;-81
2022/10/01 06:47:06;;;;;;;;;;;18.30;99.90;;;;;;5097722;28;19916;-81
2022/10/01 06:49:35;;;;;;;;;;;18.30;99.90;;;;;;5103674;28;19912;-81
2022/10/01 06:54:45;;;;;;;;;;;18.20;99.90;;;;;;5093232;28;22148;-81
2022/10/01 06:57:11;;;;;;;;;;;18.30;99.90;;;;;;5098486;28;19920;-81
2022/10/01 06:59:36;;;;;;;;;;;18.40;99.90;;;;;;5099323;28;20369;-81
2022/10/01 07:02:18;;;;;;;;;;;18.50;99.90;;;;;;5085079;28;19920;-82
2022/10/01 07:04:48;;;;;;;;;;;18.70;99.90;;;;;;5097575;28;19928;-81
2022/10/01 07:07:14;;;;;;;;;;;19.00;99.90;;;;;;5098401;28;19964;-82
2022/10/01 07:09:39;;;;;;;;;;;19.20;99.90;;;;;;5105742;28;21475;-82
2022/10/01 07:12:05;;;;;;;;;;;19.40;99.90;;;;;;5105592;28;19958;-81
2022/10/01 07:14:31;;;;;;;;;;;19.50;99.90;;;;;;5092391;28;20358;-81
2022/10/01 07:16:57;;;;;;;;;;;19.50;99.90;;;;;;5097539;28;19912;-81
2022/10/01 07:19:22;;;;;;;;;;;19.10;99.90;;;;;;5116288;28;20371;-81
2022/10/01 07:21:56;;;;;;;;;;;18.20;99.90;;;;;;5113075;28;19935;-81
2022/10/01 07:24:44;;;;;;;;;;;17.40;99.90;;;;;;5120729;28;20300;-81
2022/10/01 07:27:12;;;;;;;;;;;16.90;99.90;;;;;;5093874;28;20367;-80
2022/10/01 07:29:38;;;;;;;;;;;16.60;99.90;;;;;;5097494;28;19975;-80
2022/10/01 07:32:09;;;;;;;;;;;16.30;99.90;;;;;;5110977;28;19916;-80
2022/10/01 07:34:44;;;;;;;;;;;16.30;99.90;;;;;;5094161;28;20416;-81
2022/10/01 07:37:16;;;;;;;;;;;16.30;99.90;;;;;;5094090;28;19913;-80
2022/10/01 07:39:42;;;;;;;;;;;16.20;99.90;;;;;;5092090;28;19931;-81
2022/10/01 07:42:08;;;;;;;;;;;16.30;99.90;;;;;;5107579;28;19912;-82
2022/10/01 07:44:42;;;;;;;;;;;16.30;99.90;;;;;;5096825;28;20272;-81
2022/10/01 07:47:17;;;;;;;;;;;16.30;99.90;;;;;;5132378;28;19967;-81
2022/10/01 07:49:43;;;;;;;;;;;16.40;99.90;;;;;;5114621;28;19947;-81
2022/10/01 07:52:11;;;;;;;;;;;16.40;99.90;;;;;;5085160;28;19912;-81
2022/10/01 07:54:37;;;;;;;;;;;16.40;99.90;;;;;;5103452;28;19960;-83
2022/10/01 07:57:03;;;;;;;;;;;16.50;99.90;;;;;;5112178;28;19912;-81
2022/10/01 07:59:32;;;;;;;;;;;16.60;99.90;;;;;;5088398;28;20453;-82
2022/10/01 08:02:03;;;;;;;;;;;16.60;99.90;;;;;;5108069;28;19912;-82
2022/10/01 08:07:16;;;;;;;;;;;17.00;99.90;;;;;;5107311;28;20096;-82
2022/10/01 08:09:49;;;;;;;;;;;16.90;99.90;;;;;;5111463;28;19916;-81
2022/10/01 08:12:18;;;;;;;;;;;16.90;99.90;;;;;;5110452;28;19916;-81
2022/10/01 08:14:49;;;;;;;;;;;16.90;99.90;;;;;;5106994;28;19912;-81
2022/10/01 08:17:15;;;;;;;;;;;16.80;99.90;;;;;;5115846;28;19939;-81
2022/10/01 08:19:55;;;;;;;;;;;16.80;99.90;;;;;;5101370;28;19912;-82
2022/10/01 08:22:24;;;;;;;;;;;16.80;99.90;;;;;;5092558;28;19912;-82
2022/10/01 08:24:49;;;;;;;;;;;16.80;99.90;;;;;;5099267;28;19920;-75
2022/10/01 08:27:15;;;;;;;;;;;16.90;99.90;;;;;;5081140;28;19916;-74
2022/10/01 08:29:42;;;;;;;;;;;16.90;99.90;;;;;;5076948;28;20128;-74
2022/10/01 08:32:08;;;;;;;;;;;17.00;99.90;;;;;;5096145;28;19975;-74
2022/10/01 08:34:34;;;;;;;;;;;17.00;99.90;;;;;;5106953;28;20358;-74
2022/10/01 08:37:00;;;;;;;;;;;17.00;99.90;;;;;;5094209;28;19912;-75
2022/10/01 08:39:26;;;;;;;;;;;17.00;99.90;;;;;;5090295;28;20011;-76
2022/10/01 08:42:10;;;;;;;;;;;17.20;99.90;;;;;;5099213;28;19957;-76
2022/10/01 08:44:40;;;;;;;;;;;17.40;99.90;;;;;;5086066;28;20381;-76
2022/10/01 08:47:32;;;;;;;;;;;17.40;99.90;;;;;;5092270;28;20033;-77
2022/10/01 08:50:18;;;;;;;;;;;17.50;99.90;;;;;;5054675;28;19912;-76
2022/10/01 08:52:54;;;;;;;;;;;17.50;99.90;;;;;;5032355;28;20285;-76
2022/10/01 08:55:22;;;;;;;;;;;17.50;99.90;;;;;;5065257;28;20284;-76
2022/10/01 08:57:50;;;;;;;;;;;17.60;99.90;;;;;;5081971;28;19963;-75
2022/10/01 09:00:17;;;;;;;;;;;17.70;99.90;;;;;;5081667;28;19912;-75
2022/10/01 09:02:44;;;;;;;;;;;17.80;99.90;;;;;;5074938;28;20315;-71
2022/10/01 09:05:23;;;;;;;;;;;18.00;99.90;;;;;;5100484;28;20003;-72
2022/10/01 09:07:52;;;;;;;;;;;18.20;99.90;;;;;;5070958;28;20227;-72
2022/10/01 09:10:18;;;;;;;;;;;18.40;99.90;;;;;;5085801;28;19912;-71
2022/10/01 09:12:58;;;;;;;;;;;18.60;99.90;;;;;;5098206;28;19920;-71
2022/10/01 09:15:34;;;;;;;;;;;18.60;99.90;;;;;;5095050;28;19919;-69
2022/10/01 09:18:14;;;;;;;;;;;18.90;99.90;;;;;;5092428;28;19912;-70
2022/10/01 09:20:49;;;;;;;;;;;18.90;99.90;;;;;;5088736;28;19913;-69
2022/10/01 09:23:22;;;;;;;;;;;18.90;99.90;;;;;;5087125;28;19956;-70
2022/10/01 09:25:51;;;;;;;;;;;19.00;99.90;;;;;;5087820;28;19912;-69
2022/10/01 09:28:26;;;;;;;;;;;19.10;99.90;;;;;;5065649;28;19939;-68
2022/10/01 09:31:14;;;;;;;;;;;19.20;99.90;;;;;;5107698;28;20387;-69
2022/10/01 09:33:58;;;;;;;;;;;19.30;99.90;;;;;;5088949;28;20302;-68
2022/10/01 09:36:38;;;;;;;;;;;19.60;99.90;;;;;;5074165;28;19920;-67
2022/10/01 09:39:27;;;;;;;;;;;19.80;99.90;;;;;;5093543;28;19928;-68
2022/10/01 09:41:52;;;;;;;;;;;19.80;99.90;;;;;;5090969;28;19916;-69
2022/10/01 09:44:29;;;;;;;;;;;19.60;99.90;;;;;;5079193;28;19923;-70
2022/10/01 09:46:55;;;;;;;;;;;19.50;99.90;;;;;;5085236;28;20355;-71
2022/10/01 09:49:38;;;;;;;;;;;19.50;99.90;;;;;;5095661;28;19908;-70
2022/10/01 09:52:11;;;;;;;;;;;19.50;99.90;;;;;;5094742;28;19935;-71
2022/10/01 09:54:46;;;;;;;;;;;19.50;99.90;;;;;;5086920;28;19919;-71
2022/10/01 09:57:25;;;;;;;;;;;19.50;99.90;;;;;;5095583;28;20045;-72
2022/10/01 10:00:02;;;;;;;;;;;19.50;99.90;;;;;;5097677;28;19947;-71
2022/10/01 10:02:35;;;;;;;;;;;19.60;99.90;;;;;;5073954;28;20370;-70
2022/10/01 10:05:05;;;;;;;;;;;19.60;99.90;;;;;;5093216;28;19920;-70
2022/10/01 10:07:34;;;;;;;;;;;19.60;99.90;;;;;;5089164;28;19912;-70
2022/10/01 10:10:19;;;;;;;;;;;19.60;99.90;;;;;;5092704;28;20057;-70
2022/10/01 10:12:45;;;;;;;;;;;19.50;99.90;;;;;;5101647;28;20040;-71
2022/10/01 10:15:15;;;;;;;;;;;19.30;99.90;;;;;;5106652;28;20321;-70
2022/10/01 10:17:43;;;;;;;;;;;19.30;99.90;;;;;;5089782;28;20425;-72
2022/10/01 10:20:17;;;;;;;;;;;19.00;99.90;;;;;;5091076;28;19919;-72
2022/10/01 10:22:43;;;;;;;;;;;18.80;99.90;;;;;;5101263;28;19912;-73
2022/10/01 10:25:18;;;;;;;;;;;18.50;99.90;;;;;;5105294;28;19927;-72
2022/10/01 10:27:54;;;;;;;;;;;18.40;99.90;;;;;;5100148;28;20201;-73
2022/10/01 10:30:20;;;;;;;;;;;18.40;99.90;;;;;;5089565;28;19923;-73
2022/10/01 10:32:47;;;;;;;;;;;18.50;99.90;;;;;;5091101;28;19947;-74
2022/10/01 10:35:25;;;;;;;;;;;18.70;99.90;;;;;;5110034;28;19950;-74
2022/10/01 10:37:56;;;;;;;;;;;18.90;99.90;;;;;;5117106;28;19916;-74
2022/10/01 10:40:54;;;;;;;;;;;19.00;99.90;;;;;;5092615;28;19991;-74
2022/10/01 10:43:21;;;;;;;;;;;19.30;99.90;;;;;;5073748;28;19912;-74
2022/10/01 10:45:53;;;;;;;;;;;19.50;99.90;;;;;;5106587;28;19923;-74
2022/10/01 10:48:22;;;;;;;;;;;19.70;99.90;;;;;;5102421;28;19919;-74
2022/10/01 10:50:52;;;;;;;;;;;19.90;99.90;;;;;;5095968;28;19916;-74
2022/10/01 10:53:27;;;;;;;;;;;19.90;99.90;;;;;;5072757;28;20012;-74
2022/10/01 10:55:54;;;;;;;;;;;20.00;99.90;;;;;;5098185;28;19958;-74
2022/10/01 10:58:23;;;;;;;;;;;20.10;99.90;;;;;;5081395;28;19975;-74
2022/10/01 11:00:53;;;;;;;;;;;20.20;99.90;;;;;;5104731;28;19923;-74
2022/10/01 11:03:20;;;;;;;;;;;20.20;99.90;;;;;;5092067;28;19900;-75
2022/10/01 11:06:00;;;;;;;;;;;20.20;99.90;;;;;;5107908;28;19984;-74
2022/10/01 11:08:48;;;;;;;;;;;20.10;99.90;;;;;;5110555;28;19947;-74
2022/10/01 11:11:47;;;;;;;;;;;20.00;99.90;;;;;;5105339;28;20003;-74
2022/10/01 11:14:25;;;;;;;;;;;19.90;99.90;;;;;;5049754;28;19913;-74
2022/10/01 11:17:11;;;;;;;;;;;20.00;99.90;;;;;;5104294;28;19927;-74
2022/10/01 11:20:02;;;;;;;;;;;19.90;99.90;;;;;;5114689;28;19912;-73
2022/10/01 11:22:41;;;;;;;;;;;20.00;99.90;;;;;;5108016;28;19919;-73
2022/10/01 11:25:20;;;;;;;;;;;20.00;99.90;;;;;;5110847;28;19930;-74
2022/10/01 11:28:04;;;;;;;;;;;19.90;99.90;;;;;;5086862;28;19977;-73
2022/10/01 11:31:02;;;;;;;;;;;;;;;;;;;;;
2022/10/01 11:43:16;;;;;;;;;;;;;;;;;;;;;
2022/10/01 11:52:16;;;;;;;;;;;20.10;99.90;;;;;;5095563;28;20061;-73
2022/10/01 11:58:49;;;;;;;;;;;20.00;99.90;;;;;;5095657;28;19965;-72
2022/10/01 12:00:59;;;;;;;;;;;20.00;99.90;;;;;;5086155;28;20288;-73
2022/10/01 12:03:29;;;;;;;;;;;20.10;99.90;;;;;;5033258;28;19979;-74
2022/10/01 12:05:56;;;;;;;;;;;20.20;99.90;;;;;;5024618;28;19977;-73
2022/10/01 12:08:34;;;;;;;;;;;20.30;99.90;;;;;;5085176;28;19912;-73
2022/10/01 12:11:30;;;;;;;;;;;20.40;99.90;;;;;;5085389;28;19912;-74
2022/10/01 12:14:02;;;;;;;;;;;20.70;99.90;;;;;;5074545;28;19920;-73
2022/10/01 12:19:47;;;;;;;;;;;20.60;99.90;;;;;;5068972;28;20026;-72
2022/10/01 12:22:24;;;;;;;;;;;20.70;99.90;;;;;;5072519;28;19916;-73
2022/10/01 12:25:00;;;;;;;;;;;20.70;99.90;;;;;;5089451;28;20019;-73
2022/10/01 12:27:37;;;;;;;;;;;20.70;99.90;;;;;;5084044;28;19920;-72
2022/10/01 12:30:44;;;;;;;;;;;20.50;99.90;;;;;;5089888;28;19938;-76
2022/10/01 12:37:04;;;;;;;;;;;;;;;;;;;;;
2022/10/01 12:40:05;;;;;;;;;;;20.80;99.90;;;;;;5089731;28;19918;-72
2022/10/01 12:43:15;;;;;;;;;;;21.10;99.90;;;;;;5073849;28;19937;-73
2022/10/01 12:46:18;;;;;;;;;;;21.20;99.90;;;;;;5079876;28;19912;-72
2022/10/01 12:49:12;;;;;;;;;;;21.10;99.90;;;;;;5090168;28;19919;-75
2022/10/01 12:51:51;;;;;;;;;;;21.20;99.90;;;;;;5089293;28;19917;-73
2022/10/01 12:54:55;;;;;;;;;;;21.10;99.90;;;;;;5088241;28;20003;-74
2022/10/01 12:57:40;;;;;;;;;;;21.30;99.90;;;;;;5076007;28;20012;-73
2022/10/01 13:01:28;;;;;;;;;;;21.60;99.90;;;;;;5097322;28;19983;-73
2022/10/01 13:03:47;;;;;;;;;;;21.90;99.90;;;;;;5077534;28;20105;-73
2022/10/01 13:06:32;;;;;;;;;;;22.10;99.90;;;;;;5088618;28;19979;-73
2022/10/01 13:09:22;;;;;;;;;;;22.10;99.90;;;;;;5083366;28;19920;-74
2022/10/01 13:12:10;;;;;;;;;;;21.80;99.90;;;;;;5075163;28;19913;-73
2022/10/01 13:14:37;;;;;;;;;;;21.50;99.90;;;;;;5097836;28;19912;-73
2022/10/01 13:17:41;;;;;;;;;;;21.40;99.90;;;;;;5075567;28;19959;-73
2022/10/01 13:20:15;;;;;;;;;;;21.20;99.90;;;;;;5075765;28;19912;-73
2022/10/01 13:22:59;;;;;;;;;;;21.10;99.90;;;;;;5080631;28;20011;-73
2022/10/01 13:25:35;;;;;;;;;;;21.00;99.90;;;;;;5103438;28;19912;-73
2022/10/01 13:28:00;;;;;;;;;;;20.90;99.90;;;;;;5083106;28;20377;-73
2022/10/01 13:31:08;;;;;;;;;;;20.80;99.90;;;;;;5078075;28;19916;-73
2022/10/01 13:33:36;;;;;;;;;;;20.80;99.90;;;;;;5052317;28;19912;-73
2022/10/01 13:36:04;;;;;;;;;;;20.80;99.90;;;;;;5092881;28;19920;-73
2022/10/01 13:38:43;;;;;;;;;;;20.70;99.90;;;;;;5094090;28;19915;-72
2022/10/01 13:41:20;;;;;;;;;;;20.70;99.90;;;;;;5100996;28;19929;-73
2022/10/01 13:43:51;;;;;;;;;;;20.50;99.90;;;;;;5091435;28;19957;-72
2022/10/01 13:46:17;;;;;;;;;;;20.60;99.90;;;;;;5094128;28;19987;-73
2022/10/01 13:48:47;;;;;;;;;;;20.60;99.90;;;;;;5106912;28;19919;-73
2022/10/01 13:51:13;;;;;;;;;;;20.50;99.90;;;;;;5076796;28;19931;-73
2022/10/01 13:53:42;;;;;;;;;;;20.60;99.90;;;;;;5073862;28;19912;-73
2022/10/01 13:56:11;;;;;;;;;;;20.60;99.90;;;;;;5099122;28;19976;-72
2022/10/01 13:58:43;;;;;;;;;;;20.50;99.90;;;;;;5102896;28;19920;-73
2022/10/01 14:01:29;;;;;;;;;;;20.40;99.90;;;;;;5096790;28;19912;-73
2022/10/01 14:04:17;;;;;;;;;;;20.40;99.90;;;;;;5087769;28;19947;-73
2022/10/01 14:06:52;;;;;;;;;;;20.20;99.90;;;;;;5095295;28;19912;-75
2022/10/01 14:09:26;;;;;;;;;;;20.00;99.90;;;;;;5081278;28;19916;-73
2022/10/01 14:18:46;;;;;;;;;;;19.80;99.90;;;;;;5009206;28;20051;-73
2022/10/01 14:21:32;;;;;;;;;;;19.80;99.90;;;;;;5014542;28;19979;-73
2022/10/01 14:24:04;;;;;;;;;;;19.70;99.90;;;;;;5029114;28;19910;-74
2022/10/01 14:26:39;;;;;;;;;;;19.80;99.90;;;;;;5063458;28;19935;-73
2022/10/01 14:29:27;;;;;;;;;;;19.70;99.90;;;;;;5094247;28;20022;-73
2022/10/01 14:32:11;;;;;;;;;;;19.70;99.90;;;;;;5083244;28;19916;-75
2022/10/01 14:34:44;;;;;;;;;;;19.70;99.90;;;;;;5102652;28;19922;-73
2022/10/01 14:37:15;;;;;;;;;;;19.70;99.90;;;;;;5095285;28;19920;-73
2022/10/01 14:39:41;;;;;;;;;;;19.60;99.90;;;;;;5094370;28;19914;-73
2022/10/01 14:42:08;;;;;;;;;;;19.50;99.90;;;;;;5099687;28;19908;-73
2022/10/01 14:44:42;;;;;;;;;;;19.60;99.90;;;;;;5099424;28;19915;-73
2022/10/01 14:47:17;;;;;;;;;;;19.50;99.90;;;;;;5104404;28;19912;-72
2022/10/01 14:49:42;;;;;;;;;;;19.60;99.90;;;;;;5095916;28;19913;-74
2022/10/01 14:52:14;;;;;;;;;;;19.60;99.90;;;;;;5098725;28;19927;-73
2022/10/01 14:54:40;;;;;;;;;;;19.50;99.90;;;;;;5098644;28;19911;-73
2022/10/01 14:57:16;;;;;;;;;;;19.60;99.90;;;;;;5102094;28;19919;-73
2022/10/01 14:59:44;;;;;;;;;;;19.60;99.90;;;;;;5111666;28;19937;-73
2022/10/01 15:02:20;;;;;;;;;;;19.50;99.90;;;;;;5079486;28;19947;-72
2022/10/01 15:04:46;;;;;;;;;;;19.70;99.90;;;;;;5095923;28;19916;-73
2022/10/01 15:07:13;;;;;;;;;;;19.80;99.90;;;;;;5093867;28;19912;-72
2022/10/01 15:09:48;;;;;;;;;;;20.00;99.90;;;;;;5099385;28;19908;-73
2022/10/01 15:12:14;;;;;;;;;;;19.90;99.90;;;;;;5112395;28;19935;-72
2022/10/01 15:14:41;;;;;;;;;;;20.00;99.90;;;;;;5095871;28;19934;-73
2022/10/01 15:17:11;;;;;;;;;;;20.10;99.90;;;;;;5097442;28;19912;-74
2022/10/01 15:19:43;;;;;;;;;;;20.10;99.90;;;;;;5103975;28;20010;-74
2022/10/01 15:22:09;;;;;;;;;;;20.30;99.90;;;;;;5096860;28;19938;-73
2022/10/01 15:24:37;;;;;;;;;;;20.30;99.90;;;;;;5096513;28;19908;-73
2022/10/01 15:27:03;;;;;;;;;;;20.30;99.90;;;;;;5097053;28;19943;-73
2022/10/01 15:29:29;;;;;;;;;;;20.30;99.90;;;;;;5105103;28;20462;-72
2022/10/01 15:31:55;;;;;;;;;;;20.20;99.90;;;;;;5102588;28;19977;-73
2022/10/01 15:34:22;;;;;;;;;;;20.10;99.90;;;;;;5096587;28;19974;-72
2022/10/01 15:36:48;;;;;;;;;;;20.00;99.90;;;;;;5078528;28;19939;-73
2022/10/01 15:39:14;;;;;;;;;;;19.90;99.90;;;;;;5096188;28;19933;-73
2022/10/01 15:41:40;;;;;;;;;;;19.90;99.90;;;;;;5094434;28;19960;-72
2022/10/01 15:44:25;;;;;;;;;;;19.90;99.90;;;;;;5104904;28;19923;-74
2022/10/01 15:46:51;;;;;;;;;;;19.90;99.90;;;;;;5111447;28;19934;-73
2022/10/01 15:49:27;;;;;;;;;;;19.90;99.90;;;;;;5094960;28;19912;-76
2022/10/01 15:54:43;;;;;;;;;;;19.90;99.90;;;;;;5094720;28;19938;-72
2022/10/01 15:57:18;;;;;;;;;;;19.80;99.90;;;;;;5097125;28;19985;-70
2022/10/01 15:59:44;;;;;;;;;;;19.80;99.90;;;;;;5099356;28;19934;-73
2022/10/01 16:02:17;;;;;;;;;;;19.80;99.90;;;;;;5075319;28;19924;-72
2022/10/01 16:04:43;;;;;;;;;;;19.80;99.90;;;;;;5093650;28;19919;-72
2022/10/01 16:07:17;;;;;;;;;;;19.80;99.90;;;;;;5094325;28;19916;-73
2022/10/01 16:09:53;;;;;;;;;;;19.70;99.90;;;;;;5078723;28;20048;-73
2022/10/01 16:12:21;;;;;;;;;;;19.70;99.90;;;;;;5088659;28;19979;-72
2022/10/01 16:15:12;;;;;;;;;;;19.60;99.90;;;;;;5096279;28;19923;-72
2022/10/01 16:17:38;;;;;;;;;;;19.60;99.90;;;;;;5088702;28;19962;-72
2022/10/01 16:20:13;;;;;;;;;;;19.50;99.90;;;;;;5095497;28;20002;-73
2022/10/01 16:22:38;;;;;;;;;;;19.40;99.90;;;;;;5094834;28;19912;-72
2022/10/01 16:25:16;;;;;;;;;;;19.40;99.90;;;;;;5095132;28;20096;-72
2022/10/01 16:27:53;;;;;;;;;;;19.40;99.90;;;;;;5071166;28;20066;-73
2022/10/01 16:30:20;;;;;;;;;;;19.30;99.90;;;;;;5079011;28;19922;-73
2022/10/01 16:32:52;;;;;;;;;;;19.20;99.90;;;;;;5098568;28;19916;-77
2022/10/01 16:35:38;;;;;;;;;;;19.10;99.90;;;;;;5073927;28;20055;-73
2022/10/01 16:38:07;;;;;;;;;;;19.00;99.90;;;;;;5105041;28;19916;-73
2022/10/01 16:40:35;;;;;;;;;;;19.00;99.90;;;;;;5090621;28;19912;-74
2022/10/01 16:43:23;;;;;;;;;;;;;;;;;;;;;
2022/10/01 16:45:52;;;;;;;;;;;18.80;99.90;;;;;;5115332;28;19908;-73
2022/10/01 16:48:37;;;;;;;;;;;18.80;99.90;;;;;;5095593;28;19922;-76
2022/10/01 16:51:09;;;;;;;;;;;18.70;99.90;;;;;;5092813;28;19920;-72
2022/10/01 16:53:34;;;;;;;;;;;18.60;99.90;;;;;;5096008;28;20011;-72
2022/10/01 16:56:09;;;;;;;;;;;18.50;99.90;;;;;;5096157;28;20153;-72
2022/10/01 16:58:56;;;;;;;;;;;18.50;99.90;;;;;;5098539;28;19923;-71
2022/10/01 17:01:40;;;;;;;;;;;18.50;99.90;;;;;;5066115;28;20263;-72
2022/10/01 17:04:43;;;;;;;;;;;18.50;99.90;;;;;;5088048;28;19946;-73
2022/10/01 17:07:09;;;;;;;;;;;18.50;99.90;;;;;;5110234;28;19912;-71
2022/10/01 17:09:55;;;;;;;;;;;18.50;99.90;;;;;;5091313;28;19912;-72
2022/10/01 17:12:40;;;;;;;;;;;;;;;;;;;;;
2022/10/01 17:15:33;;;;;;;;;;;18.30;99.90;;;;;;5093992;28;20002;-71
2022/10/01 18:14:20;;;;;;;;;;;18.20;99.90;;;;;;5021040;28;19925;-81
2022/10/01 18:16:57;;;;;;;;;;;18.20;99.90;;;;;;5082173;28;19912;-81
2022/10/01 18:19:25;;;;;;;;;;;18.10;99.90;;;;;;5088061;28;19915;-80
2022/10/01 18:21:51;;;;;;;;;;;18.00;99.90;;;;;;5087582;28;19908;-80
2022/10/01 18:24:22;;;;;;;;;;;18.00;99.90;;;;;;5103172;28;19934;-80